Terminal Aerodrome Forecast
Issued by NWS

Home | Current Version | Previous Version | Text Only | Print | Product List | Glossary On
Versions: 1 2 3 4 5 6 7 8 9 10 11 12 13 14 15 16 17
000
FTUS41 KBTV 042340
TAFRUT
TAF
KRUT 042340Z 0500/0524 12009KT P6SM -SHRA OVC045
     FM050500 10005KT P6SM VCSH OVC035
     FM051200 08005KT P6SM VCSH OVC035
     FM052000 05007KT P6SM VCSH OVC035
      AMD LTD TO CLD VIS AND WIND=

USA.gov is the U.S. government's official web portal to all federal, state and local government web resources and services.